sensor_id;sensor_type;location;lat;lon;timestamp;P1;durP1;ratioP1;P2;durP2;ratioP2
61248;SDS011;47119;49.130;9.218;2023-01-01T00:02:26;0.88;;;0.82;;
61248;SDS011;47119;49.130;9.218;2023-01-01T00:04:53;1.05;;;1.05;;
61248;SDS011;47119;49.130;9.218;2023-01-01T00:07:20;1.38;;;1.33;;
61248;SDS011;47119;49.130;9.218;2023-01-01T00:09:48;1.02;;;0.98;;
61248;SDS011;47119;49.130;9.218;2023-01-01T00:12:32;1.90;;;1.80;;
61248;SDS011;47119;49.130;9.218;2023-01-01T00:15:04;1.73;;;1.60;;
61248;SDS011;47119;49.130;9.218;2023-01-01T00:17:35;2.05;;;1.92;;
61248;SDS011;47119;49.130;9.218;2023-01-01T00:20:02;1.63;;;1.55;;
61248;SDS011;47119;49.130;9.218;2023-01-01T00:22:30;3.53;;;2.92;;
61248;SDS011;47119;49.130;9.218;2023-01-01T00:24:57;3.55;;;3.22;;
61248;SDS011;47119;49.130;9.218;2023-01-01T00:27:26;3.08;;;2.53;;
61248;SDS011;47119;49.130;9.218;2023-01-01T00:29:53;2.33;;;2.13;;
61248;SDS011;47119;49.130;9.218;2023-01-01T00:32:22;14.48;;;10.50;;
61248;SDS011;47119;49.130;9.218;2023-01-01T00:34:49;6.63;;;5.75;;
61248;SDS011;47119;49.130;9.218;2023-01-01T00:37:17;5.18;;;3.83;;
61248;SDS011;47119;49.130;9.218;2023-01-01T00:39:44;4.47;;;3.90;;
61248;SDS011;47119;49.130;9.218;2023-01-01T00:42:11;10.43;;;7.32;;
61248;SDS011;47119;49.130;9.218;2023-01-01T00:44:38;3.60;;;3.30;;
61248;SDS011;47119;49.130;9.218;2023-01-01T00:47:05;5.00;;;3.80;;
61248;SDS011;47119;49.130;9.218;2023-01-01T00:49:37;4.32;;;3.92;;
61248;SDS011;47119;49.130;9.218;2023-01-01T00:52:04;5.40;;;4.85;;
61248;SDS011;47119;49.130;9.218;2023-01-01T00:54:31;5.88;;;4.15;;
61248;SDS011;47119;49.130;9.218;2023-01-01T00:57:01;2.80;;;2.55;;
61248;SDS011;47119;49.130;9.218;2023-01-01T00:59:28;4.35;;;3.95;;
61248;SDS011;47119;49.130;9.218;2023-01-01T01:01:56;3.25;;;3.03;;
61248;SDS011;47119;49.130;9.218;2023-01-01T01:04:23;2.22;;;2.13;;
61248;SDS011;47119;49.130;9.218;2023-01-01T01:06:52;2.78;;;1.95;;
61248;SDS011;47119;49.130;9.218;2023-01-01T01:09:19;1.63;;;1.63;;
61248;SDS011;47119;49.130;9.218;2023-01-01T01:11:48;1.50;;;1.50;;
61248;SDS011;47119;49.130;9.218;2023-01-01T01:14:15;1.90;;;1.80;;
61248;SDS011;47119;49.130;9.218;2023-01-01T01:16:43;3.42;;;3.13;;
61248;SDS011;47119;49.130;9.218;2023-01-01T01:19:10;1.98;;;1.80;;
61248;SDS011;47119;49.130;9.218;2023-01-01T01:21:40;3.90;;;2.83;;
61248;SDS011;47119;49.130;9.218;2023-01-01T01:24:09;2.90;;;2.70;;
61248;SDS011;47119;49.130;9.218;2023-01-01T01:26:36;2.38;;;2.28;;
61248;SDS011;47119;49.130;9.218;2023-01-01T01:29:03;2.25;;;2.13;;
61248;SDS011;47119;49.130;9.218;2023-01-01T01:31:31;6.72;;;2.97;;
61248;SDS011;47119;49.130;9.218;2023-01-01T01:34:00;2.60;;;2.47;;
61248;SDS011;47119;49.130;9.218;2023-01-01T01:36:27;2.45;;;2.17;;
61248;SDS011;47119;49.130;9.218;2023-01-01T01:38:57;2.47;;;2.30;;
61248;SDS011;47119;49.130;9.218;2023-01-01T01:41:25;2.47;;;2.38;;
61248;SDS011;47119;49.130;9.218;2023-01-01T01:43:54;2.35;;;2.17;;
61248;SDS011;47119;49.130;9.218;2023-01-01T01:46:28;3.72;;;1.83;;
61248;SDS011;47119;49.130;9.218;2023-01-01T01:51:32;3.53;;;1.75;;
61248;SDS011;47119;49.130;9.218;2023-01-01T01:54:09;3.20;;;2.03;;
61248;SDS011;47119;49.130;9.218;2023-01-01T01:56:44;1.40;;;1.30;;
61248;SDS011;47119;49.130;9.218;2023-01-01T01:59:18;1.40;;;1.15;;
61248;SDS011;47119;49.130;9.218;2023-01-01T02:01:51;1.10;;;1.10;;
61248;SDS011;47119;49.130;9.218;2023-01-01T02:04:19;2.25;;;2.03;;
61248;SDS011;47119;49.130;9.218;2023-01-01T02:06:47;4.22;;;1.50;;
61248;SDS011;47119;49.130;9.218;2023-01-01T02:09:15;1.63;;;1.52;;
61248;SDS011;47119;49.130;9.218;2023-01-01T02:11:44;1.30;;;1.30;;
61248;SDS011;47119;49.130;9.218;2023-01-01T02:14:14;1.52;;;1.42;;
61248;SDS011;47119;49.130;9.218;2023-01-01T02:16:45;2.53;;;1.83;;
61248;SDS011;47119;49.130;9.218;2023-01-01T02:19:24;1.33;;;1.23;;
61248;SDS011;47119;49.130;9.218;2023-01-01T02:22:10;1.88;;;1.08;;
61248;SDS011;47119;49.130;9.218;2023-01-01T02:24:49;1.73;;;1.63;;
61248;SDS011;47119;49.130;9.218;2023-01-01T02:27:32;1.45;;;1.40;;
61248;SDS011;47119;49.130;9.218;2023-01-01T02:30:18;1.67;;;1.58;;
61248;SDS011;47119;49.130;9.218;2023-01-01T02:32:46;2.10;;;2.00;;
61248;SDS011;47119;49.130;9.218;2023-01-01T02:35:22;2.15;;;2.05;;
61248;SDS011;47119;49.130;9.218;2023-01-01T02:38:02;5.15;;;2.25;;
61248;SDS011;47119;49.130;9.218;2023-01-01T02:40:36;1.52;;;1.45;;
61248;SDS011;47119;49.130;9.218;2023-01-01T02:43:09;1.52;;;1.33;;
61248;SDS011;47119;49.130;9.218;2023-01-01T02:45:38;1.92;;;1.83;;
61248;SDS011;47119;49.130;9.218;2023-01-01T02:48:06;2.60;;;2.38;;
61248;SDS011;47119;49.130;9.218;2023-01-01T02:51:08;3.00;;;1.35;;
61248;SDS011;47119;49.130;9.218;2023-01-01T02:53:51;1.05;;;1.05;;
61248;SDS011;47119;49.130;9.218;2023-01-01T02:56:33;1.83;;;1.73;;
61248;SDS011;47119;49.130;9.218;2023-01-01T02:59:18;1.55;;;0.65;;
61248;SDS011;47119;49.130;9.218;2023-01-01T03:02:18;1.23;;;1.20;;
61248;SDS011;47119;49.130;9.218;2023-01-01T03:05:01;0.20;;;0.20;;
61248;SDS011;47119;49.130;9.218;2023-01-01T03:07:39;0.70;;;0.70;;
61248;SDS011;47119;49.130;9.218;2023-01-01T03:10:26;0.43;;;0.43;;
61248;SDS011;47119;49.130;9.218;2023-01-01T03:13:08;0.45;;;0.45;;
61248;SDS011;47119;49.130;9.218;2023-01-01T03:15:50;0.85;;;0.85;;
61248;SDS011;47119;49.130;9.218;2023-01-01T03:18:30;1.90;;;1.80;;
61248;SDS011;47119;49.130;9.218;2023-01-01T03:21:04;1.80;;;1.10;;
61248;SDS011;47119;49.130;9.218;2023-01-01T03:23:34;2.85;;;1.23;;
61248;SDS011;47119;49.130;9.218;2023-01-01T03:26:09;1.02;;;0.88;;
61248;SDS011;47119;49.130;9.218;2023-01-01T03:28:42;1.40;;;1.25;;
61248;SDS011;47119;49.130;9.218;2023-01-01T03:31:18;0.85;;;0.85;;
61248;SDS011;47119;49.130;9.218;2023-01-01T03:33:51;1.23;;;1.15;;
61248;SDS011;47119;49.130;9.218;2023-01-01T03:36:27;2.00;;;0.95;;
61248;SDS011;47119;49.130;9.218;2023-01-01T03:39:03;0.50;;;0.50;;
61248;SDS011;47119;49.130;9.218;2023-01-01T03:41:38;0.40;;;0.40;;
61248;SDS011;47119;49.130;9.218;2023-01-01T03:44:12;0.60;;;0.60;;
61248;SDS011;47119;49.130;9.218;2023-01-01T03:46:47;0.95;;;0.90;;
61248;SDS011;47119;49.130;9.218;2023-01-01T03:49:16;0.38;;;0.38;;
61248;SDS011;47119;49.130;9.218;2023-01-01T03:54:43;1.02;;;1.02;;
61248;SDS011;47119;49.130;9.218;2023-01-01T03:57:19;0.32;;;0.32;;
61248;SDS011;47119;49.130;9.218;2023-01-01T03:59:56;0.10;;;0.10;;
61248;SDS011;47119;49.130;9.218;2023-01-01T04:02:41;0.25;;;0.25;;
61248;SDS011;47119;49.130;9.218;2023-01-01T04:05:20;0.32;;;0.32;;
61248;SDS011;47119;49.130;9.218;2023-01-01T04:07:50;1.25;;;0.50;;
61248;SDS011;47119;49.130;9.218;2023-01-01T04:10:19;0.22;;;0.22;;
61248;SDS011;47119;49.130;9.218;2023-01-01T04:12:50;0.52;;;0.52;;
61248;SDS011;47119;49.130;9.218;2023-01-01T04:15:23;0.57;;;0.57;;
61248;SDS011;47119;49.130;9.218;2023-01-01T04:17:53;0.30;;;0.30;;
61248;SDS011;47119;49.130;9.218;2023-01-01T04:20:22;2.28;;;0.68;;
61248;SDS011;47119;49.130;9.218;2023-01-01T04:22:54;0.20;;;0.20;;
61248;SDS011;47119;49.130;9.218;2023-01-01T04:25:22;0.65;;;0.65;;
61248;SDS011;47119;49.130;9.218;2023-01-01T04:27:50;0.90;;;0.90;;
61248;SDS011;47119;49.130;9.218;2023-01-01T04:30:18;0.70;;;0.70;;
61248;SDS011;47119;49.130;9.218;2023-01-01T04:32:45;0.68;;;0.68;;
61248;SDS011;47119;49.130;9.218;2023-01-01T04:35:13;0.47;;;0.47;;
61248;SDS011;47119;49.130;9.218;2023-01-01T04:37:43;0.47;;;0.47;;
61248;SDS011;47119;49.130;9.218;2023-01-01T04:40:13;0.40;;;0.40;;
61248;SDS011;47119;49.130;9.218;2023-01-01T04:42:40;0.43;;;0.43;;
61248;SDS011;47119;49.130;9.218;2023-01-01T04:45:08;0.20;;;0.20;;
61248;SDS011;47119;49.130;9.218;2023-01-01T04:47:39;0.22;;;0.22;;
61248;SDS011;47119;49.130;9.218;2023-01-01T04:50:09;0.40;;;0.40;;
61248;SDS011;47119;49.130;9.218;2023-01-01T04:52:36;0.35;;;0.35;;
61248;SDS011;47119;49.130;9.218;2023-01-01T04:55:05;0.22;;;0.20;;
61248;SDS011;47119;49.130;9.218;2023-01-01T04:57:34;0.10;;;0.10;;
61248;SDS011;47119;49.130;9.218;2023-01-01T05:00:01;0.17;;;0.17;;
61248;SDS011;47119;49.130;9.218;2023-01-01T05:02:30;0.68;;;0.68;;
61248;SDS011;47119;49.130;9.218;2023-01-01T05:04:57;0.25;;;0.25;;
61248;SDS011;47119;49.130;9.218;2023-01-01T05:07:24;0.00;;;0.00;;
61248;SDS011;47119;49.130;9.218;2023-01-01T05:09:51;0.30;;;0.30;;
61248;SDS011;47119;49.130;9.218;2023-01-01T05:12:19;0.15;;;0.15;;
61248;SDS011;47119;49.130;9.218;2023-01-01T05:14:46;0.50;;;0.50;;
61248;SDS011;47119;49.130;9.218;2023-01-01T05:17:13;0.35;;;0.35;;
61248;SDS011;47119;49.130;9.218;2023-01-01T05:19:41;0.20;;;0.20;;
61248;SDS011;47119;49.130;9.218;2023-01-01T05:22:08;0.45;;;0.45;;
61248;SDS011;47119;49.130;9.218;2023-01-01T05:24:35;0.45;;;0.40;;
61248;SDS011;47119;49.130;9.218;2023-01-01T05:27:02;0.60;;;0.60;;
61248;SDS011;47119;49.130;9.218;2023-01-01T05:29:33;1.45;;;1.35;;
61248;SDS011;47119;49.130;9.218;2023-01-01T05:32:03;0.20;;;0.20;;
61248;SDS011;47119;49.130;9.218;2023-01-01T05:34:31;0.22;;;0.22;;
61248;SDS011;47119;49.130;9.218;2023-01-01T05:37:00;0.20;;;0.20;;
61248;SDS011;47119;49.130;9.218;2023-01-01T05:39:29;0.20;;;0.20;;
61248;SDS011;47119;49.130;9.218;2023-01-01T05:41:56;0.22;;;0.22;;
61248;SDS011;47119;49.130;9.218;2023-01-01T05:44:24;0.43;;;0.43;;
61248;SDS011;47119;49.130;9.218;2023-01-01T05:46:55;0.35;;;0.35;;
61248;SDS011;47119;49.130;9.218;2023-01-01T05:49:22;0.22;;;0.22;;
61248;SDS011;47119;49.130;9.218;2023-01-01T05:51:49;0.40;;;0.40;;
61248;SDS011;47119;49.130;9.218;2023-01-01T05:54:16;0.30;;;0.30;;
61248;SDS011;47119;49.130;9.218;2023-01-01T05:56:43;0.45;;;0.45;;
61248;SDS011;47119;49.130;9.218;2023-01-01T05:59:11;0.10;;;0.10;;
61248;SDS011;47119;49.130;9.218;2023-01-01T06:01:40;0.10;;;0.10;;
61248;SDS011;47119;49.130;9.218;2023-01-01T06:04:09;0.40;;;0.40;;
61248;SDS011;47119;49.130;9.218;2023-01-01T06:06:36;0.10;;;0.10;;
61248;SDS011;47119;49.130;9.218;2023-01-01T06:09:04;0.00;;;0.00;;
61248;SDS011;47119;49.130;9.218;2023-01-01T06:11:31;0.20;;;0.20;;
61248;SDS011;47119;49.130;9.218;2023-01-01T06:13:59;0.17;;;0.17;;
61248;SDS011;47119;49.130;9.218;2023-01-01T06:16:27;0.32;;;0.32;;
61248;SDS011;47119;49.130;9.218;2023-01-01T06:19:00;0.20;;;0.20;;
61248;SDS011;47119;49.130;9.218;2023-01-01T06:21:28;0.10;;;0.10;;
61248;SDS011;47119;49.130;9.218;2023-01-01T06:23:58;1.35;;;1.08;;
61248;SDS011;47119;49.130;9.218;2023-01-01T06:26:26;0.25;;;0.25;;
61248;SDS011;47119;49.130;9.218;2023-01-01T06:28:56;0.20;;;0.20;;
61248;SDS011;47119;49.130;9.218;2023-01-01T06:31:24;0.30;;;0.30;;
61248;SDS011;47119;49.130;9.218;2023-01-01T06:33:55;0.10;;;0.10;;
61248;SDS011;47119;49.130;9.218;2023-01-01T06:36:23;0.28;;;0.28;;
61248;SDS011;47119;49.130;9.218;2023-01-01T06:38:53;0.10;;;0.10;;
61248;SDS011;47119;49.130;9.218;2023-01-01T06:41:23;0.20;;;0.20;;
61248;SDS011;47119;49.130;9.218;2023-01-01T06:43:53;0.10;;;0.10;;
61248;SDS011;47119;49.130;9.218;2023-01-01T06:46:24;0.10;;;0.10;;
61248;SDS011;47119;49.130;9.218;2023-01-01T06:48:55;0.10;;;0.10;;
61248;SDS011;47119;49.130;9.218;2023-01-01T06:51:26;0.13;;;0.13;;
61248;SDS011;47119;49.130;9.218;2023-01-01T06:53:58;0.30;;;0.30;;
61248;SDS011;47119;49.130;9.218;2023-01-01T06:56:27;0.17;;;0.17;;
61248;SDS011;47119;49.130;9.218;2023-01-01T06:58:55;0.20;;;0.20;;
61248;SDS011;47119;49.130;9.218;2023-01-01T07:01:23;0.10;;;0.10;;
61248;SDS011;47119;49.130;9.218;2023-01-01T07:03:53;0.10;;;0.10;;
61248;SDS011;47119;49.130;9.218;2023-01-01T07:06:24;0.30;;;0.30;;
61248;SDS011;47119;49.130;9.218;2023-01-01T07:08:55;0.03;;;0.03;;
61248;SDS011;47119;49.130;9.218;2023-01-01T07:11:24;0.30;;;0.30;;
61248;SDS011;47119;49.130;9.218;2023-01-01T07:13:52;0.10;;;0.10;;
61248;SDS011;47119;49.130;9.218;2023-01-01T07:16:22;0.10;;;0.10;;
61248;SDS011;47119;49.130;9.218;2023-01-01T07:18:55;0.10;;;0.10;;
61248;SDS011;47119;49.130;9.218;2023-01-01T07:21:27;0.13;;;0.13;;
61248;SDS011;47119;49.130;9.218;2023-01-01T07:24:01;0.20;;;0.20;;
61248;SDS011;47119;49.130;9.218;2023-01-01T07:26:33;0.10;;;0.10;;
61248;SDS011;47119;49.130;9.218;2023-01-01T07:29:00;0.20;;;0.20;;
61248;SDS011;47119;49.130;9.218;2023-01-01T07:31:27;0.10;;;0.10;;
61248;SDS011;47119;49.130;9.218;2023-01-01T07:33:56;1.45;;;0.30;;
61248;SDS011;47119;49.130;9.218;2023-01-01T07:36:23;0.32;;;0.32;;
61248;SDS011;47119;49.130;9.218;2023-01-01T07:38:50;0.30;;;0.30;;
61248;SDS011;47119;49.130;9.218;2023-01-01T07:41:17;0.10;;;0.10;;
61248;SDS011;47119;49.130;9.218;2023-01-01T07:43:48;0.20;;;0.20;;
61248;SDS011;47119;49.130;9.218;2023-01-01T07:46:15;0.10;;;0.10;;
61248;SDS011;47119;49.130;9.218;2023-01-01T07:48:44;0.20;;;0.20;;
61248;SDS011;47119;49.130;9.218;2023-01-01T07:51:12;0.08;;;0.08;;
61248;SDS011;47119;49.130;9.218;2023-01-01T07:53:39;0.40;;;0.40;;
61248;SDS011;47119;49.130;9.218;2023-01-01T07:56:06;0.25;;;0.25;;
61248;SDS011;47119;49.130;9.218;2023-01-01T07:58:37;0.17;;;0.17;;
61248;SDS011;47119;49.130;9.218;2023-01-01T08:01:09;0.20;;;0.20;;
61248;SDS011;47119;49.130;9.218;2023-01-01T08:03:40;0.10;;;0.10;;
61248;SDS011;47119;49.130;9.218;2023-01-01T08:06:10;0.17;;;0.17;;
61248;SDS011;47119;49.130;9.218;2023-01-01T08:08:41;0.10;;;0.10;;
61248;SDS011;47119;49.130;9.218;2023-01-01T08:11:08;0.10;;;0.10;;
61248;SDS011;47119;49.130;9.218;2023-01-01T08:13:38;0.25;;;0.25;;
61248;SDS011;47119;49.130;9.218;2023-01-01T08:16:05;0.32;;;0.32;;
61248;SDS011;47119;49.130;9.218;2023-01-01T08:18:37;0.10;;;0.10;;
61248;SDS011;47119;49.130;9.218;2023-01-01T08:21:04;0.10;;;0.10;;
61248;SDS011;47119;49.130;9.218;2023-01-01T08:23:31;0.00;;;0.00;;
61248;SDS011;47119;49.130;9.218;2023-01-01T08:25:58;0.28;;;0.28;;
61248;SDS011;47119;49.130;9.218;2023-01-01T08:28:27;0.10;;;0.10;;
61248;SDS011;47119;49.130;9.218;2023-01-01T08:30:56;0.32;;;0.32;;
61248;SDS011;47119;49.130;9.218;2023-01-01T08:33:26;0.13;;;0.13;;
61248;SDS011;47119;49.130;9.218;2023-01-01T08:35:54;0.15;;;0.15;;
61248;SDS011;47119;49.130;9.218;2023-01-01T08:38:21;0.10;;;0.10;;
61248;SDS011;47119;49.130;9.218;2023-01-01T08:40:48;0.00;;;0.00;;
61248;SDS011;47119;49.130;9.218;2023-01-01T08:43:20;0.10;;;0.10;;
61248;SDS011;47119;49.130;9.218;2023-01-01T08:45:48;0.10;;;0.10;;
61248;SDS011;47119;49.130;9.218;2023-01-01T08:48:15;0.38;;;0.38;;
61248;SDS011;47119;49.130;9.218;2023-01-01T08:50:43;0.20;;;0.20;;
61248;SDS011;47119;49.130;9.218;2023-01-01T08:53:11;0.20;;;0.20;;
61248;SDS011;47119;49.130;9.218;2023-01-01T08:55:38;0.25;;;0.25;;
61248;SDS011;47119;49.130;9.218;2023-01-01T08:58:07;0.38;;;0.38;;
61248;SDS011;47119;49.130;9.218;2023-01-01T09:00:37;0.10;;;0.10;;
61248;SDS011;47119;49.130;9.218;2023-01-01T09:03:04;0.45;;;0.45;;
61248;SDS011;47119;49.130;9.218;2023-01-01T09:05:33;0.17;;;0.17;;
61248;SDS011;47119;49.130;9.218;2023-01-01T09:08:03;0.10;;;0.10;;
61248;SDS011;47119;49.130;9.218;2023-01-01T09:10:34;0.13;;;0.13;;
61248;SDS011;47119;49.130;9.218;2023-01-01T09:13:03;0.25;;;0.25;;
61248;SDS011;47119;49.130;9.218;2023-01-01T09:15:30;0.10;;;0.10;;
61248;SDS011;47119;49.130;9.218;2023-01-01T09:17:57;0.05;;;0.05;;
61248;SDS011;47119;49.130;9.218;2023-01-01T09:20:24;0.25;;;0.25;;
61248;SDS011;47119;49.130;9.218;2023-01-01T09:23:00;0.10;;;0.10;;
61248;SDS011;47119;49.130;9.218;2023-01-01T09:25:29;0.10;;;0.10;;
61248;SDS011;47119;49.130;9.218;2023-01-01T09:27:58;0.52;;;0.30;;
61248;SDS011;47119;49.130;9.218;2023-01-01T09:30:26;0.10;;;0.10;;
61248;SDS011;47119;49.130;9.218;2023-01-01T09:32:54;0.10;;;0.10;;
61248;SDS011;47119;49.130;9.218;2023-01-01T09:35:23;0.15;;;0.15;;
61248;SDS011;47119;49.130;9.218;2023-01-01T09:37:51;0.00;;;0.00;;
61248;SDS011;47119;49.130;9.218;2023-01-01T09:40:23;0.00;;;0.00;;
61248;SDS011;47119;49.130;9.218;2023-01-01T09:43:03;0.40;;;0.40;;
61248;SDS011;47119;49.130;9.218;2023-01-01T09:45:45;0.13;;;0.13;;
61248;SDS011;47119;49.130;9.218;2023-01-01T09:48:24;0.10;;;0.10;;
61248;SDS011;47119;49.130;9.218;2023-01-01T09:50:57;0.10;;;0.10;;
61248;SDS011;47119;49.130;9.218;2023-01-01T09:53:33;0.35;;;0.30;;
61248;SDS011;47119;49.130;9.218;2023-01-01T09:56:16;0.00;;;0.00;;
61248;SDS011;47119;49.130;9.218;2023-01-01T09:58:51;0.30;;;0.30;;
61248;SDS011;47119;49.130;9.218;2023-01-01T10:01:24;0.20;;;0.20;;
61248;SDS011;47119;49.130;9.218;2023-01-01T10:04:15;6.82;;;0.50;;
61248;SDS011;47119;49.130;9.218;2023-01-01T10:07:01;0.50;;;0.50;;
61248;SDS011;47119;49.130;9.218;2023-01-01T10:09:41;0.10;;;0.10;;
61248;SDS011;47119;49.130;9.218;2023-01-01T10:12:22;0.45;;;0.15;;
61248;SDS011;47119;49.130;9.218;2023-01-01T10:15:11;0.20;;;0.20;;
61248;SDS011;47119;49.130;9.218;2023-01-01T10:17:43;0.08;;;0.08;;
61248;SDS011;47119;49.130;9.218;2023-01-01T10:20:16;0.10;;;0.10;;
61248;SDS011;47119;49.130;9.218;2023-01-01T10:22:51;0.40;;;0.40;;
61248;SDS011;47119;49.130;9.218;2023-01-01T10:25:26;0.28;;;0.28;;
61248;SDS011;47119;49.130;9.218;2023-01-01T10:27:58;0.15;;;0.15;;
61248;SDS011;47119;49.130;9.218;2023-01-01T10:30:31;0.10;;;0.10;;
61248;SDS011;47119;49.130;9.218;2023-01-01T10:33:01;0.00;;;0.00;;
61248;SDS011;47119;49.130;9.218;2023-01-01T10:35:38;0.30;;;0.30;;
61248;SDS011;47119;49.130;9.218;2023-01-01T10:38:15;0.03;;;0.03;;
61248;SDS011;47119;49.130;9.218;2023-01-01T10:40:49;0.10;;;0.10;;
61248;SDS011;47119;49.130;9.218;2023-01-01T10:43:20;0.17;;;0.17;;
61248;SDS011;47119;49.130;9.218;2023-01-01T10:45:49;0.17;;;0.17;;
61248;SDS011;47119;49.130;9.218;2023-01-01T10:48:23;0.10;;;0.10;;
61248;SDS011;47119;49.130;9.218;2023-01-01T10:50:52;0.28;;;0.28;;
61248;SDS011;47119;49.130;9.218;2023-01-01T10:53:28;0.43;;;0.35;;
61248;SDS011;47119;49.130;9.218;2023-01-01T10:56:03;0.10;;;0.10;;
61248;SDS011;47119;49.130;9.218;2023-01-01T11:01:20;0.30;;;0.30;;
61248;SDS011;47119;49.130;9.218;2023-01-01T11:03:55;0.20;;;0.20;;
61248;SDS011;47119;49.130;9.218;2023-01-01T11:06:45;0.30;;;0.30;;
61248;SDS011;47119;49.130;9.218;2023-01-01T11:09:18;0.20;;;0.20;;
61248;SDS011;47119;49.130;9.218;2023-01-01T11:11:53;0.15;;;0.15;;
61248;SDS011;47119;49.130;9.218;2023-01-01T11:14:27;0.15;;;0.15;;
61248;SDS011;47119;49.130;9.218;2023-01-01T11:17:05;0.13;;;0.13;;
61248;SDS011;47119;49.130;9.218;2023-01-01T11:19:36;0.10;;;0.10;;
61248;SDS011;47119;49.130;9.218;2023-01-01T11:22:10;0.00;;;0.00;;
61248;SDS011;47119;49.130;9.218;2023-01-01T11:25:03;0.20;;;0.20;;
61248;SDS011;47119;49.130;9.218;2023-01-01T11:27:43;0.25;;;0.25;;
61248;SDS011;47119;49.130;9.218;2023-01-01T11:30:21;0.15;;;0.15;;
61248;SDS011;47119;49.130;9.218;2023-01-01T11:32:56;0.20;;;0.20;;
61248;SDS011;47119;49.130;9.218;2023-01-01T11:35:28;0.10;;;0.10;;
61248;SDS011;47119;49.130;9.218;2023-01-01T11:38:00;0.20;;;0.20;;
61248;SDS011;47119;49.130;9.218;2023-01-01T11:40:32;0.52;;;0.52;;
61248;SDS011;47119;49.130;9.218;2023-01-01T11:43:15;0.10;;;0.10;;
61248;SDS011;47119;49.130;9.218;2023-01-01T11:45:51;0.40;;;0.40;;
61248;SDS011;47119;49.130;9.218;2023-01-01T11:48:26;0.10;;;0.10;;
61248;SDS011;47119;49.130;9.218;2023-01-01T11:50:59;0.20;;;0.20;;
61248;SDS011;47119;49.130;9.218;2023-01-01T11:53:36;0.00;;;0.00;;
61248;SDS011;47119;49.130;9.218;2023-01-01T11:56:07;0.20;;;0.20;;
61248;SDS011;47119;49.130;9.218;2023-01-01T11:58:42;0.40;;;0.40;;
61248;SDS011;47119;49.130;9.218;2023-01-01T12:01:18;0.10;;;0.10;;
61248;SDS011;47119;49.130;9.218;2023-01-01T12:03:56;0.13;;;0.13;;
61248;SDS011;47119;49.130;9.218;2023-01-01T12:06:35;1.13;;;0.55;;
61248;SDS011;47119;49.130;9.218;2023-01-01T12:09:13;0.22;;;0.22;;
61248;SDS011;47119;49.130;9.218;2023-01-01T12:11:49;0.10;;;0.10;;
61248;SDS011;47119;49.130;9.218;2023-01-01T12:14:27;0.52;;;0.52;;
61248;SDS011;47119;49.130;9.218;2023-01-01T12:17:06;0.30;;;0.30;;
61248;SDS011;47119;49.130;9.218;2023-01-01T12:19:50;0.25;;;0.25;;
61248;SDS011;47119;49.130;9.218;2023-01-01T12:22:26;0.30;;;0.30;;
61248;SDS011;47119;49.130;9.218;2023-01-01T12:24:53;0.30;;;0.30;;
61248;SDS011;47119;49.130;9.218;2023-01-01T12:27:30;0.65;;;0.32;;
61248;SDS011;47119;49.130;9.218;2023-01-01T12:30:22;0.38;;;0.30;;
61248;SDS011;47119;49.130;9.218;2023-01-01T12:33:16;0.10;;;0.10;;
61248;SDS011;47119;49.130;9.218;2023-01-01T12:36:09;0.10;;;0.10;;
61248;SDS011;47119;49.130;9.218;2023-01-01T12:39:07;0.30;;;0.30;;
61248;SDS011;47119;49.130;9.218;2023-01-01T12:42:57;0.20;;;0.20;;
61248;SDS011;47119;49.130;9.218;2023-01-01T12:48:44;0.13;;;0.13;;
61248;SDS011;47119;49.130;9.218;2023-01-01T12:51:38;0.10;;;0.10;;
61248;SDS011;47119;49.130;9.218;2023-01-01T12:57:25;0.10;;;0.10;;
61248;SDS011;47119;49.130;9.218;2023-01-01T13:00:02;0.10;;;0.10;;
61248;SDS011;47119;49.130;9.218;2023-01-01T13:02:44;0.10;;;0.10;;
61248;SDS011;47119;49.130;9.218;2023-01-01T13:05:17;0.10;;;0.10;;
61248;SDS011;47119;49.130;9.218;2023-01-01T13:10:24;0.15;;;0.05;;
61248;SDS011;47119;49.130;9.218;2023-01-01T13:13:01;0.10;;;0.10;;
61248;SDS011;47119;49.130;9.218;2023-01-01T13:18:25;0.28;;;0.28;;
61248;SDS011;47119;49.130;9.218;2023-01-01T13:21:01;0.35;;;0.35;;
61248;SDS011;47119;49.130;9.218;2023-01-01T13:23:50;0.13;;;0.13;;
61248;SDS011;47119;49.130;9.218;2023-01-01T13:26:32;0.10;;;0.10;;
61248;SDS011;47119;49.130;9.218;2023-01-01T13:32:10;0.20;;;0.20;;
61248;SDS011;47119;49.130;9.218;2023-01-01T13:37:45;0.25;;;0.20;;
61248;SDS011;47119;49.130;9.218;2023-01-01T13:43:20;0.10;;;0.10;;
61248;SDS011;47119;49.130;9.218;2023-01-01T13:45:57;0.10;;;0.10;;
61248;SDS011;47119;49.130;9.218;2023-01-01T13:54:59;0.20;;;0.20;;
61248;SDS011;47119;49.130;9.218;2023-01-01T13:58:10;0.00;;;0.00;;
61248;SDS011;47119;49.130;9.218;2023-01-01T14:01:27;0.05;;;0.05;;
61248;SDS011;47119;49.130;9.218;2023-01-01T14:04:29;0.20;;;0.20;;
61248;SDS011;47119;49.130;9.218;2023-01-01T14:07:08;0.10;;;0.10;;
61248;SDS011;47119;49.130;9.218;2023-01-01T14:09:45;0.03;;;0.03;;
61248;SDS011;47119;49.130;9.218;2023-01-01T14:12:15;0.13;;;0.13;;
61248;SDS011;47119;49.130;9.218;2023-01-01T14:14:48;0.40;;;0.40;;
61248;SDS011;47119;49.130;9.218;2023-01-01T14:17:20;0.30;;;0.30;;
61248;SDS011;47119;49.130;9.218;2023-01-01T14:19:47;0.10;;;0.10;;
61248;SDS011;47119;49.130;9.218;2023-01-01T14:22:15;0.22;;;0.22;;
61248;SDS011;47119;49.130;9.218;2023-01-01T14:24:44;0.13;;;0.13;;
61248;SDS011;47119;49.130;9.218;2023-01-01T14:27:17;0.15;;;0.15;;
61248;SDS011;47119;49.130;9.218;2023-01-01T14:29:51;0.28;;;0.28;;
61248;SDS011;47119;49.130;9.218;2023-01-01T14:32:21;0.08;;;0.08;;
61248;SDS011;47119;49.130;9.218;2023-01-01T14:34:57;0.13;;;0.13;;
61248;SDS011;47119;49.130;9.218;2023-01-01T14:37:25;0.20;;;0.20;;
61248;SDS011;47119;49.130;9.218;2023-01-01T14:40:06;0.38;;;0.38;;
61248;SDS011;47119;49.130;9.218;2023-01-01T14:42:41;0.10;;;0.10;;
61248;SDS011;47119;49.130;9.218;2023-01-01T14:45:15;0.10;;;0.10;;
61248;SDS011;47119;49.130;9.218;2023-01-01T14:47:47;0.30;;;0.30;;
61248;SDS011;47119;49.130;9.218;2023-01-01T14:50:20;0.30;;;0.30;;
61248;SDS011;47119;49.130;9.218;2023-01-01T14:52:56;0.28;;;0.28;;
61248;SDS011;47119;49.130;9.218;2023-01-01T14:55:33;0.30;;;0.30;;
61248;SDS011;47119;49.130;9.218;2023-01-01T14:58:08;0.30;;;0.30;;
61248;SDS011;47119;49.130;9.218;2023-01-01T15:00:44;0.35;;;0.35;;
61248;SDS011;47119;49.130;9.218;2023-01-01T15:03:13;0.00;;;0.00;;
61248;SDS011;47119;49.130;9.218;2023-01-01T15:05:43;0.30;;;0.30;;
61248;SDS011;47119;49.130;9.218;2023-01-01T15:08:19;0.22;;;0.22;;
61248;SDS011;47119;49.130;9.218;2023-01-01T15:10:50;0.15;;;0.15;;
61248;SDS011;47119;49.130;9.218;2023-01-01T15:13:18;0.05;;;0.05;;
61248;SDS011;47119;49.130;9.218;2023-01-01T15:15:50;0.40;;;0.40;;
61248;SDS011;47119;49.130;9.218;2023-01-01T15:18:35;0.30;;;0.30;;
61248;SDS011;47119;49.130;9.218;2023-01-01T15:21:06;0.13;;;0.13;;
61248;SDS011;47119;49.130;9.218;2023-01-01T15:23:47;0.35;;;0.35;;
61248;SDS011;47119;49.130;9.218;2023-01-01T15:26:23;1.08;;;1.00;;
61248;SDS011;47119;49.130;9.218;2023-01-01T15:28:55;0.22;;;0.22;;
61248;SDS011;47119;49.130;9.218;2023-01-01T15:31:33;0.20;;;0.20;;
61248;SDS011;47119;49.130;9.218;2023-01-01T15:34:05;0.20;;;0.20;;
61248;SDS011;47119;49.130;9.218;2023-01-01T15:36:52;0.10;;;0.10;;
61248;SDS011;47119;49.130;9.218;2023-01-01T15:39:22;0.20;;;0.20;;
61248;SDS011;47119;49.130;9.218;2023-01-01T15:41:52;0.20;;;0.20;;
61248;SDS011;47119;49.130;9.218;2023-01-01T15:44:20;0.30;;;0.30;;
61248;SDS011;47119;49.130;9.218;2023-01-01T15:47:03;0.60;;;0.60;;
61248;SDS011;47119;49.130;9.218;2023-01-01T15:49:39;0.10;;;0.10;;
61248;SDS011;47119;49.130;9.218;2023-01-01T15:52:13;0.20;;;0.20;;
61248;SDS011;47119;49.130;9.218;2023-01-01T15:54:48;0.40;;;0.40;;
61248;SDS011;47119;49.130;9.218;2023-01-01T15:57:16;0.00;;;0.00;;
61248;SDS011;47119;49.130;9.218;2023-01-01T15:59:46;0.38;;;0.25;;